createdAt,value
2023-01-29T00:02:47.373Z,100577.91
2023-01-29T00:05:50.569Z,100577.66
2023-01-29T00:08:53.506Z,100580.53
2023-01-29T00:11:58.204Z,100580.28
2023-01-29T00:15:01.192Z,100572.84
2023-01-29T00:18:05.370Z,100573.66
2023-01-29T00:21:16.130Z,100572.87
2023-01-29T00:24:20.909Z,100570.50
2023-01-29T00:27:24.019Z,100571.31
2023-01-29T00:30:27.874Z,100575.56
2023-01-29T00:33:30.759Z,100578.00
2023-01-29T00:36:34.041Z,100572.66
2023-01-29T00:39:47.797Z,100574.56
2023-01-29T00:43:10.608Z,100578.34
2023-01-29T00:46:14.741Z,100569.00
2023-01-29T00:49:17.695Z,100582.87
2023-01-29T00:52:26.454Z,100583.41
2023-01-29T00:55:29.442Z,100585.00
2023-01-29T00:58:34.513Z,100587.41
2023-01-29T01:01:56.271Z,100596.41
2023-01-29T01:05:04.285Z,100598.78
2023-01-29T01:08:27.476Z,100600.63
2023-01-29T01:11:30.429Z,100609.38
2023-01-29T01:14:36.225Z,100605.31
2023-01-29T01:17:39.609Z,100606.59
2023-01-29T01:20:42.915Z,100598.88
2023-01-29T01:23:45.906Z,100599.63
2023-01-29T01:26:49.145Z,100596.69
2023-01-29T01:29:52.180Z,100603.59
2023-01-29T01:32:55.589Z,100595.03
2023-01-29T01:36:02.241Z,100600.81
2023-01-29T01:39:06.983Z,100600.78
2023-01-29T01:42:13.567Z,100592.78
2023-01-29T01:45:20.870Z,100597.53
2023-01-29T01:48:25.488Z,100598.84
2023-01-29T01:51:31.339Z,100595.88
2023-01-29T01:54:35.018Z,100592.47
2023-01-29T01:57:38.461Z,100602.28
2023-01-29T02:00:43.038Z,100607.56
2023-01-29T02:04:13.764Z,100614.50
2023-01-29T02:07:35.279Z,100608.06
2023-01-29T02:10:43.664Z,100612.06
2023-01-29T02:13:47.233Z,100606.16
2023-01-29T02:16:50.211Z,100619.50
2023-01-29T02:19:56.523Z,100618.44
2023-01-29T02:23:23.425Z,100625.12
2023-01-29T02:26:26.587Z,100621.66
2023-01-29T02:30:11.037Z,100622.69
2023-01-29T02:33:34.610Z,100623.22
2023-01-29T02:36:51.560Z,100618.09
2023-01-29T02:40:08.337Z,100627.97
2023-01-29T02:43:35.529Z,100629.28
2023-01-29T02:46:47.349Z,100634.91
2023-01-29T02:49:51.492Z,100631.28
2023-01-29T02:52:56.985Z,100637.41
2023-01-29T02:56:08.036Z,100639.56
2023-01-29T02:59:39.748Z,100637.88
2023-01-29T03:02:47.950Z,100645.12
2023-01-29T03:05:58.802Z,100642.44
2023-01-29T03:09:05.676Z,100645.03
2023-01-29T03:12:33.704Z,100646.13
2023-01-29T03:15:42.564Z,100646.87
2023-01-29T03:18:53.149Z,100648.19
2023-01-29T03:22:00.643Z,100652.44
2023-01-29T03:25:24.148Z,100658.88
2023-01-29T03:28:47.319Z,100655.47
2023-01-29T03:32:05.617Z,100658.91
2023-01-29T03:35:10.462Z,100660.47
2023-01-29T03:38:13.725Z,100659.75
2023-01-29T03:41:29.670Z,100667.81
2023-01-29T03:44:37.317Z,100674.91
2023-01-29T03:48:10.600Z,100673.31
2023-01-29T03:51:21.287Z,100675.41
2023-01-29T03:54:43.105Z,100674.13
2023-01-29T03:57:50.979Z,100665.28
2023-01-29T04:00:59.118Z,100672.97
2023-01-29T04:04:13.275Z,100669.53
2023-01-29T04:07:24.646Z,100666.06
2023-01-29T04:10:31.702Z,100661.78
2023-01-29T04:13:35.902Z,100662.06
2023-01-29T04:16:42.610Z,100660.72
2023-01-29T04:19:48.218Z,100662.31
2023-01-29T04:22:52.697Z,100667.28
2023-01-29T04:26:26.369Z,100672.16
2023-01-29T04:29:41.076Z,100678.16
2023-01-29T04:33:07.090Z,100664.69
2023-01-29T04:36:39.846Z,100663.00
2023-01-29T04:40:16.475Z,100666.50
2023-01-29T04:43:25.977Z,100673.81
2023-01-29T04:46:40.784Z,100658.88
2023-01-29T04:49:49.544Z,100653.75
2023-01-29T04:53:13.701Z,100666.66
2023-01-29T04:56:27.639Z,100658.31
2023-01-29T04:59:43.286Z,100655.34
2023-01-29T05:02:47.901Z,100653.94
2023-01-29T05:05:52.617Z,100658.22
2023-01-29T05:08:56.629Z,100667.25
2023-01-29T05:12:01.324Z,100662.69
2023-01-29T05:15:11.155Z,100659.75
2023-01-29T05:18:15.242Z,100651.25
2023-01-29T05:21:20.889Z,100667.47
2023-01-29T05:24:24.710Z,100654.44
2023-01-29T05:27:54.333Z,100668.63
2023-01-29T05:30:57.804Z,100664.84
2023-01-29T05:34:01.093Z,100671.25
2023-01-29T05:37:04.050Z,100676.06
2023-01-29T05:40:08.967Z,100680.03
2023-01-29T05:43:23.705Z,100678.81
2023-01-29T05:46:26.975Z,100688.37
2023-01-29T05:49:30.129Z,100687.34
2023-01-29T05:52:33.344Z,100693.47
2023-01-29T05:55:36.403Z,100689.03
2023-01-29T05:58:40.114Z,100697.28
2023-01-29T06:01:43.095Z,100704.97
2023-01-29T06:04:46.550Z,100700.72
2023-01-29T06:07:49.562Z,100701.22
2023-01-29T06:10:52.811Z,100696.94
2023-01-29T06:13:57.001Z,100702.28
2023-01-29T06:17:00.333Z,100706.12
2023-01-29T06:20:04.533Z,100704.47
2023-01-29T06:23:08.955Z,100712.72
2023-01-29T06:26:13.684Z,100711.13
2023-01-29T06:29:16.989Z,100712.50
2023-01-29T06:32:19.936Z,100725.81
2023-01-29T06:35:23.331Z,100715.19
2023-01-29T06:38:27.178Z,100717.59
2023-01-29T06:41:30.467Z,100718.78
2023-01-29T06:44:33.411Z,100721.44
2023-01-29T06:47:36.697Z,100721.91
2023-01-29T06:50:39.589Z,100728.56
2023-01-29T06:53:45.419Z,100731.47
2023-01-29T06:56:48.934Z,100724.25
2023-01-29T06:59:52.358Z,100733.91
2023-01-29T07:02:56.117Z,100729.13
2023-01-29T07:05:59.524Z,100727.59
2023-01-29T07:09:04.105Z,100717.66
2023-01-29T07:12:10.199Z,100722.72
2023-01-29T07:15:14.124Z,100720.84
2023-01-29T07:18:17.375Z,100722.41
2023-01-29T07:21:20.366Z,100711.75
2023-01-29T07:24:23.712Z,100724.75
2023-01-29T07:27:27.894Z,100719.69
2023-01-29T07:30:31.278Z,100711.97
2023-01-29T07:33:34.700Z,100710.09
2023-01-29T07:36:37.925Z,100715.88
2023-01-29T07:39:40.961Z,100718.97
2023-01-29T07:42:44.386Z,100718.78
2023-01-29T07:45:47.355Z,100722.97
2023-01-29T07:48:51.071Z,100724.03
2023-01-29T07:51:55.343Z,100724.22
2023-01-29T07:54:58.684Z,100726.00
2023-01-29T07:58:04.463Z,100722.06
2023-01-29T08:01:08.284Z,100724.78
2023-01-29T08:04:13.030Z,100723.16
2023-01-29T08:07:16.017Z,100730.91
2023-01-29T08:10:19.689Z,100725.37
2023-01-29T08:13:22.881Z,100720.03
2023-01-29T08:16:26.268Z,100733.59
2023-01-29T08:19:29.392Z,100723.94
2023-01-29T08:22:33.184Z,100723.12
2023-01-29T08:25:36.205Z,100730.69
2023-01-29T08:28:39.592Z,100732.25
2023-01-29T08:31:42.723Z,100743.22
2023-01-29T08:34:46.353Z,100738.44
2023-01-29T08:37:58.440Z,100744.81
2023-01-29T08:41:01.755Z,100749.34
2023-01-29T08:44:05.098Z,100753.88
2023-01-29T08:47:08.517Z,100748.25
2023-01-29T08:50:11.937Z,100756.56
2023-01-29T08:53:16.669Z,100765.28
2023-01-29T08:56:19.687Z,100761.34
2023-01-29T08:59:23.894Z,100761.31
2023-01-29T09:02:26.896Z,100765.63
2023-01-29T09:05:30.741Z,100762.66
2023-01-29T09:08:34.677Z,100775.41
2023-01-29T09:11:38.872Z,100771.19
2023-01-29T09:14:42.060Z,100770.09
2023-01-29T09:17:45.397Z,100772.44
2023-01-29T09:20:48.886Z,100777.22
2023-01-29T09:23:52.565Z,100775.56
2023-01-29T09:26:55.609Z,100778.03
2023-01-29T09:29:59.337Z,100787.56
2023-01-29T09:33:03.139Z,100791.88
2023-01-29T09:36:07.073Z,100784.44
2023-01-29T09:39:10.529Z,100798.00
2023-01-29T09:42:20.099Z,100789.28
2023-01-29T09:45:27.985Z,100791.94
2023-01-29T09:48:33.901Z,100795.97
2023-01-29T09:51:42.475Z,100791.72
2023-01-29T09:55:00.208Z,100790.63
2023-01-29T09:58:07.811Z,100788.50
2023-01-29T10:01:36.126Z,100789.03
2023-01-29T10:04:51.297Z,100793.22
2023-01-29T10:08:03.581Z,100793.47
2023-01-29T10:11:09.699Z,100791.94
2023-01-29T10:14:26.015Z,100793.19
2023-01-29T10:17:50.611Z,100792.13
2023-01-29T10:20:53.815Z,100812.47
2023-01-29T10:24:24.475Z,100808.16
2023-01-29T10:27:35.742Z,100804.13
2023-01-29T10:30:41.441Z,100801.22
2023-01-29T10:34:01.435Z,100796.13
2023-01-29T10:37:28.501Z,100796.16
2023-01-29T10:40:47.063Z,100796.09
2023-01-29T10:44:00.315Z,100783.88
2023-01-29T10:47:12.446Z,100779.66
2023-01-29T10:50:40.648Z,100786.03
2023-01-29T10:54:07.359Z,100791.62
2023-01-29T10:57:21.762Z,100777.78
2023-01-29T11:00:31.276Z,100771.44
2023-01-29T11:03:36.500Z,100769.78
2023-01-29T11:06:39.739Z,100764.66
2023-01-29T11:09:49.507Z,100756.94
2023-01-29T11:12:53.365Z,100757.50
2023-01-29T11:15:56.767Z,100757.47
2023-01-29T11:19:01.670Z,100748.69
2023-01-29T11:22:05.100Z,100732.37
2023-01-29T11:25:10.195Z,100733.78
2023-01-29T11:28:14.538Z,100717.22
2023-01-29T11:31:39.048Z,100705.78
2023-01-29T11:35:03.004Z,100694.84
2023-01-29T11:38:21.418Z,100697.56
2023-01-29T11:41:25.601Z,100706.50
2023-01-29T11:44:54.855Z,100687.16
2023-01-29T11:47:58.835Z,100691.28
2023-01-29T11:51:03.490Z,100688.41
2023-01-29T11:54:17.784Z,100677.59
2023-01-29T11:57:28.174Z,100681.13
2023-01-29T12:00:33.968Z,100679.28
2023-01-29T12:03:41.198Z,100677.97
2023-01-29T12:06:45.423Z,100678.06
2023-01-29T12:09:57.600Z,100678.44
2023-01-29T12:13:27.559Z,100677.97
2023-01-29T12:16:37.168Z,100681.09
2023-01-29T12:19:51.959Z,100689.66
2023-01-29T12:23:08.962Z,100692.16
2023-01-29T12:26:18.960Z,100691.28
2023-01-29T12:29:43.204Z,100682.19
2023-01-29T12:32:57.379Z,100682.16
2023-01-29T12:36:29.871Z,100680.09
2023-01-29T12:39:33.133Z,100667.09
2023-01-29T12:42:37.697Z,100652.44
2023-01-29T12:45:42.841Z,100649.78
2023-01-29T12:48:46.145Z,100637.28
2023-01-29T12:52:04.171Z,100629.72
2023-01-29T12:55:19.296Z,100620.41
2023-01-29T12:58:56.166Z,100616.34
2023-01-29T13:02:20.136Z,100612.12
2023-01-29T13:05:34.005Z,100610.37
2023-01-29T13:08:45.243Z,100617.28
2023-01-29T13:12:02.212Z,100615.59
2023-01-29T13:15:31.177Z,100624.16
2023-01-29T13:18:49.090Z,100620.00
2023-01-29T13:21:55.214Z,100615.75
2023-01-29T13:25:04.761Z,100611.59
2023-01-29T13:28:18.067Z,100606.63
2023-01-29T13:31:34.359Z,100592.63
2023-01-29T13:34:44.921Z,100605.59
2023-01-29T13:37:53.173Z,100607.13
2023-01-29T13:41:01.429Z,100606.56
2023-01-29T13:44:20.945Z,100614.34
2023-01-29T13:47:30.611Z,100608.09
2023-01-29T13:50:39.407Z,100598.84
2023-01-29T13:53:44.284Z,100600.03
2023-01-29T13:57:01.948Z,100596.34
2023-01-29T14:00:07.147Z,100600.84
2023-01-29T14:03:13.682Z,100598.81
2023-01-29T14:06:39.604Z,100606.78
2023-01-29T14:09:42.992Z,100596.69
2023-01-29T14:12:48.391Z,100595.97
2023-01-29T14:15:58.186Z,100589.97
2023-01-29T14:19:03.366Z,100600.38
2023-01-29T14:22:08.179Z,100599.94
2023-01-29T14:25:18.663Z,100599.13
2023-01-29T14:28:29.781Z,100611.13
2023-01-29T14:31:35.900Z,100606.50
2023-01-29T14:34:46.108Z,100609.47
2023-01-29T14:37:58.962Z,100616.09
2023-01-29T14:41:06.532Z,100609.03
2023-01-29T14:44:48.766Z,100608.62
2023-01-29T14:48:09.874Z,100613.91
2023-01-29T14:51:15.122Z,100606.03
2023-01-29T14:54:26.468Z,100601.25
2023-01-29T14:57:32.027Z,100598.72
2023-01-29T15:00:39.042Z,100598.06
2023-01-29T15:03:49.107Z,100607.31
2023-01-29T15:07:16.894Z,100599.72
2023-01-29T15:10:41.541Z,100594.41
2023-01-29T15:13:56.241Z,100597.16
2023-01-29T15:17:10.527Z,100597.25
2023-01-29T15:20:41.574Z,100599.28
2023-01-29T15:23:49.683Z,100592.75
2023-01-29T15:26:55.667Z,100587.53
2023-01-29T15:30:04.176Z,100593.41
2023-01-29T15:33:11.226Z,100591.94
2023-01-29T15:36:20.531Z,100589.06
2023-01-29T15:39:25.612Z,100595.72
2023-01-29T15:42:30.952Z,100598.41
2023-01-29T15:45:35.536Z,100595.78
2023-01-29T15:48:42.504Z,100600.31
2023-01-29T15:51:47.625Z,100603.53
2023-01-29T15:54:51.904Z,100609.13
2023-01-29T15:57:56.152Z,100612.06
2023-01-29T16:01:00.554Z,100612.84
2023-01-29T16:04:04.565Z,100616.84
2023-01-29T16:07:09.266Z,100621.09
2023-01-29T16:10:22.578Z,100617.38
2023-01-29T16:13:28.568Z,100618.97
2023-01-29T16:16:33.396Z,100617.94
2023-01-29T16:19:36.718Z,100630.41
2023-01-29T16:22:44.107Z,100626.69
2023-01-29T16:25:49.264Z,100625.09
2023-01-29T16:28:54.002Z,100623.25
2023-01-29T16:32:02.496Z,100626.94
2023-01-29T16:35:07.288Z,100634.38
2023-01-29T16:38:28.569Z,100639.16
2023-01-29T16:41:36.003Z,100628.53
2023-01-29T16:45:01.089Z,100631.72
2023-01-29T16:48:28.060Z,100631.19
2023-01-29T16:51:41.920Z,100637.31
2023-01-29T16:54:46.429Z,100633.34
2023-01-29T16:57:55.361Z,100636.25
2023-01-29T17:01:06.726Z,100628.81
2023-01-29T17:04:15.070Z,100633.28
2023-01-29T17:07:22.194Z,100629.31
2023-01-29T17:10:31.960Z,100631.97
2023-01-29T17:13:43.195Z,100633.78
2023-01-29T17:16:55.088Z,100620.50
2023-01-29T17:20:10.497Z,100618.41
2023-01-29T17:23:15.357Z,100618.97
2023-01-29T17:26:21.676Z,100623.41
2023-01-29T17:29:29.797Z,100615.19
2023-01-29T17:32:45.144Z,100614.69
2023-01-29T17:35:54.233Z,100609.63
2023-01-29T17:39:01.860Z,100607.25
2023-01-29T17:42:06.677Z,100615.19
2023-01-29T17:45:11.969Z,100605.63
2023-01-29T17:48:29.052Z,100606.97
2023-01-29T17:51:33.404Z,100612.53
2023-01-29T17:54:37.606Z,100598.19
2023-01-29T17:57:42.602Z,100591.03
2023-01-29T18:00:47.690Z,100594.97
2023-01-29T18:04:12.887Z,100596.06
2023-01-29T18:07:23.038Z,100593.13
2023-01-29T18:10:28.137Z,100580.69
2023-01-29T18:13:33.293Z,100583.56
2023-01-29T18:16:38.057Z,100576.63
2023-01-29T18:19:45.394Z,100570.03
2023-01-29T18:22:50.721Z,100571.31
2023-01-29T18:25:58.270Z,100560.72
2023-01-29T18:29:03.970Z,100551.72
2023-01-29T18:32:08.526Z,100561.25
2023-01-29T18:35:13.118Z,100576.94
2023-01-29T18:38:18.350Z,100573.47
2023-01-29T18:41:23.056Z,100561.00
2023-01-29T18:44:30.178Z,100568.66
2023-01-29T18:47:35.919Z,100577.94
2023-01-29T18:50:40.691Z,100569.44
2023-01-29T18:53:50.704Z,100568.13
2023-01-29T18:57:12.962Z,100572.63
2023-01-29T19:00:19.821Z,100581.09
2023-01-29T19:03:24.116Z,100582.94
2023-01-29T19:06:28.982Z,100573.16
2023-01-29T19:09:33.673Z,100583.22
2023-01-29T19:12:38.669Z,100578.19
2023-01-29T19:15:44.296Z,100576.81
2023-01-29T19:18:50.183Z,100559.59
2023-01-29T19:21:55.342Z,100568.06
2023-01-29T19:25:00.528Z,100560.59
2023-01-29T19:28:07.257Z,100558.97
2023-01-29T19:31:13.521Z,100556.66
2023-01-29T19:34:17.627Z,100555.31
2023-01-29T19:37:22.888Z,100560.09
2023-01-29T19:40:28.305Z,100563.00
2023-01-29T19:43:34.114Z,100560.88
2023-01-29T19:46:39.406Z,100560.59
2023-01-29T19:49:47.118Z,100563.50
2023-01-29T19:52:52.943Z,100552.88
2023-01-29T19:56:03.482Z,100567.44
2023-01-29T19:59:07.930Z,100570.03
2023-01-29T20:02:14.703Z,100564.50
2023-01-29T20:05:20.823Z,100564.97
2023-01-29T20:08:27.411Z,100560.25
2023-01-29T20:11:37.433Z,100558.87
2023-01-29T20:14:49.269Z,100559.16
2023-01-29T20:17:53.492Z,100556.19
2023-01-29T20:20:57.783Z,100554.41
2023-01-29T20:24:03.130Z,100551.16
2023-01-29T20:27:07.422Z,100535.34
2023-01-29T20:30:12.643Z,100527.06
2023-01-29T20:33:20.224Z,100527.06
2023-01-29T20:36:25.677Z,100526.53
2023-01-29T20:39:30.336Z,100528.09
2023-01-29T20:42:39.820Z,100528.09
2023-01-29T20:45:44.450Z,100536.03
2023-01-29T20:48:53.766Z,100535.50
2023-01-29T20:52:03.574Z,100544.19
2023-01-29T20:55:10.354Z,100527.25
2023-01-29T20:58:15.884Z,100531.81
2023-01-29T21:01:21.687Z,100540.31
2023-01-29T21:04:27.895Z,100538.87
2023-01-29T21:07:33.818Z,100544.00
2023-01-29T21:10:41.497Z,100549.50
2023-01-29T21:13:49.460Z,100547.69
2023-01-29T21:16:56.235Z,100548.50
2023-01-29T21:20:00.234Z,100550.69
2023-01-29T21:23:07.448Z,100557.88
2023-01-29T21:26:11.175Z,100560.13
2023-01-29T21:29:15.888Z,100544.31
2023-01-29T21:32:22.764Z,100549.09
2023-01-29T21:35:27.792Z,100535.84
2023-01-29T21:38:34.096Z,100531.84
2023-01-29T21:41:56.705Z,100535.81
2023-01-29T21:45:00.985Z,100540.12
2023-01-29T21:48:05.164Z,100545.94
2023-01-29T21:51:09.122Z,100549.94
2023-01-29T21:54:12.085Z,100544.63
2023-01-29T21:57:17.346Z,100539.63
2023-01-29T22:00:20.571Z,100540.12
2023-01-29T22:03:23.971Z,100539.88
2023-01-29T22:06:27.062Z,100534.03
2023-01-29T22:09:30.493Z,100534.56
2023-01-29T22:12:34.501Z,100536.19
2023-01-29T22:15:37.769Z,100529.31
2023-01-29T22:18:41.182Z,100536.97
2023-01-29T22:21:45.052Z,100521.87
2023-01-29T22:24:48.136Z,100526.66
2023-01-29T22:27:51.396Z,100515.50
2023-01-29T22:30:54.399Z,100513.84
2023-01-29T22:33:57.698Z,100502.69
2023-01-29T22:37:01.660Z,100500.03
2023-01-29T22:40:05.307Z,100496.66
2023-01-29T22:43:08.313Z,100494.75
2023-01-29T22:46:11.912Z,100488.06
2023-01-29T22:49:14.958Z,100487.81
2023-01-29T22:52:22.269Z,100480.66
2023-01-29T22:55:25.213Z,100485.13
2023-01-29T22:58:28.539Z,100474.78
2023-01-29T23:01:33.297Z,100468.44
2023-01-29T23:04:36.962Z,100459.91
2023-01-29T23:07:40.504Z,100455.66
2023-01-29T23:10:44.075Z,100458.06
2023-01-29T23:13:49.700Z,100451.13
2023-01-29T23:16:52.894Z,100451.97
2023-01-29T23:19:56.207Z,100448.69
2023-01-29T23:22:59.311Z,100433.84
2023-01-29T23:26:22.574Z,100433.84
2023-01-29T23:29:25.821Z,100431.19
2023-01-29T23:32:30.082Z,100417.41
2023-01-29T23:35:33.356Z,100419.56
2023-01-29T23:38:36.771Z,100413.16
2023-01-29T23:41:40.075Z,100420.03
2023-01-29T23:44:43.082Z,100416.34
2023-01-29T23:47:46.257Z,100414.75
2023-01-29T23:50:49.736Z,100415.50
2023-01-29T23:53:53.147Z,100416.56
2023-01-29T23:56:56.091Z,100417.13
2023-01-29T23:59:59.384Z,100413.41
